Alta, Iowa
Current Conditions -  °F | °C
As of 2:15 PM on Monday 22 Dec 2014 (Local Time) from KSLB Reporting Station
Unknown Precip Unknown Precip  
Wind Chill: 32°   Ceiling: 500
Heat Index: 39°   Visibility: 3mi
Dew Point: 39°   Wind: 12mph
Humidity: 100%   Direction: 140°SE
Pressure: 29.43"   Gusts: NA
Location:  42.67°N, 95.29°W
Report Text: KSLB 222015Z AUTO 14010KT 3SM -UP BKN005 OVC009 04/04 A2943 RMK AO2
Loading
Personal Weather Stations






























Interactive Weather Map New forecast layout! Learn more

10-Day Weather Forecast

Advertisements
Track Severe Weather on mobile